Thursday, October 2, 2014, 2:22 AM EDT

KSHD, Staunton / Shenandoah

Location: Weyers Cave, VA, United States Lat: 38.267
Local Time: 2:22 AM EDT ( 6:22 GMT) Lon: -78.9
Time Zone: US/Eastern Elev: 1200 ft

Show me the last for .
Show Decoded

2014-10-02 01:55 METAR KSHD 020555Z AUTO 00000KT M1/4SM FG OVC004 16/15 A3010 RMK AO2 P0001 60003
                 T01590149 10197 20158 402430141 =
2014-10-02 01:35 METAR KSHD 020535Z AUTO 00000KT 2SM BR BKN029 BKN039 17/16 A3010 RMK AO2 P0001
                 T01660155 =
2014-10-02 01:15 METAR KSHD 020515Z AUTO 00000KT 3SM BR BKN025 BKN032 OVC039 17/16 A3011 RMK AO2
                 P0001 T01670155 =
2014-10-02 00:55 METAR KSHD 020455Z AUTO 00000KT 5SM BR OVC025 17/16 A3010 RMK AO2 T01730159 =
2014-10-02 00:35 METAR KSHD 020435Z AUTO 00000KT 4SM BR BKN023 BKN029 BKN035 18/16 A3010 RMK AO2
                 T01750160 =
2014-10-02 00:15 METAR KSHD 020415Z AUTO 06003KT 7SM BKN021 BKN028 BKN037 18/16 A3010 RMK AO2
                 T01760160 =
2014-10-01 23:55 METAR KSHD 020355Z AUTO 00000KT 7SM OVC019 18/16 A3011 RMK AO2 T01800161 =
2014-10-01 23:35 METAR KSHD 020335Z AUTO 00000KT 7SM BKN021 OVC027 18/16 A3011 RMK AO2 T01800162
                 =
2014-10-01 23:15 METAR KSHD 020315Z AUTO 00000KT 7SM BKN025 OVC031 18/16 A3011 RMK AO2 T01800161
                 =
2014-10-01 22:55 METAR KSHD 020255Z AUTO 08003KT 7SM DZ SCT021 BKN026 OVC032 18/16 A3010 RMK AO2
                 P0002 60002 T01820161 =
2014-10-01 22:35 METAR KSHD 020235Z AUTO 00000KT 5SM -RA OVC021 18/16 A3010 RMK AO2 P0002
                 T01820159 =
2014-10-01 22:15 METAR KSHD 020215Z AUTO 26003KT 10SM RA BKN023 OVC028 19/16 A3010 RMK AO2
                 T01850156 =
2014-10-01 21:55 METAR KSHD 020155Z AUTO 00000KT 10SM BKN028 OVC033 19/15 A3009 RMK AO2 T01900154
                 =
2014-10-01 21:35 METAR KSHD 020135Z AUTO 00000KT 10SM OVC032 19/15 A3008 RMK AO2 T01900154 =
2014-10-01 21:15 METAR KSHD 020115Z AUTO 00000KT 10SM OVC032 19/16 A3008 RMK AO2 T01910156 =
2014-10-01 20:55 METAR KSHD 020055Z AUTO 36003KT 10SM OVC032 19/16 A3007 RMK AO2 T01910158 =
2014-10-01 20:35 METAR KSHD 020035Z AUTO 02003KT 10SM OVC032 19/16 A3007 RMK AO2 T01920160 =
2014-10-01 20:15 METAR KSHD 020015Z AUTO 07003KT 10SM OVC034 20/16 A3006 RMK AO2 T01950162 =
2014-10-01 19:55 METAR KSHD 012355Z AUTO 00000KT 10SM -DZ OVC034 20/16 A3006 RMK AO2 T01990159
                 10243 20199 =
2014-10-01 19:35 METAR KSHD 012335Z AUTO 00000KT 10SM -RA OVC034 21/15 A3005 RMK AO2 T02070148 =
2014-10-01 19:15 METAR KSHD 012315Z AUTO 00000KT 10SM OVC034 21/15 A3004 RMK AO2 T02070148 =
2014-10-01 18:55 METAR KSHD 012255Z AUTO 00000KT 10SM BKN034 BKN040 OVC049 21/15 A3004 RMK AO2
                 T02090147 =
2014-10-01 18:35 METAR KSHD 012235Z AUTO 00000KT 10SM SCT034 BKN050 OVC095 21/15 A3004 RMK AO2
                 T02100148 =
2014-10-01 17:55 METAR KSHD 012155Z AUTO 13004KT 10SM SCT046 BKN070 OVC095 22/15 A3003 RMK AO2
                 T02150146 =
2014-10-01 17:35 METAR KSHD 012135Z AUTO 10004KT 10SM SCT044 BKN050 OVC095 22/15 A3003 RMK AO2
                 T02160148 =
2014-10-01 17:15 METAR KSHD 012115Z AUTO 11004KT 10SM -RA SCT042 BKN060 OVC085 22/15 A3003 RMK
                 AO2 T02180146 =
2014-10-01 16:55 METAR KSHD 012055Z AUTO 12003KT 10SM SCT050 OVC095 22/14 A3002 RMK AO2 T02200142
                 =
2014-10-01 16:35 METAR KSHD 012035Z AUTO 11005KT 10SM SCT033 BKN049 OVC095 22/14 A3002 RMK AO2
                 T02220141 =
2014-10-01 16:15 METAR KSHD 012015Z AUTO 13005KT 10SM SCT033 BKN042 OVC049 22/14 A3002 RMK AO2
                 T02240139 =
2014-10-01 15:55 METAR KSHD 011955Z AUTO 13005KT 10SM OVC044 23/14 A3002 RMK AO2 T02300140 =
2014-10-01 15:35 METAR KSHD 011935Z AUTO 08004KT 10SM BKN044 BKN070 BKN095 24/14 A3002 RMK AO2
                 T02370140 =
2014-10-01 15:15 METAR KSHD 011915Z AUTO 15006KT 10SM BKN095 23/14 A3002 RMK AO2 T02320142 =
2014-10-01 14:55 METAR KSHD 011855Z AUTO 14003KT 10SM SCT029 BKN095 23/14 A3002 RMK AO2 T02290142
                 =
2014-10-01 14:35 METAR KSHD 011835Z AUTO 14006KT 10SM SCT029 SCT060 BKN085 23/15 A3002 RMK AO2
                 T02280146 =
2014-10-01 14:15 METAR KSHD 011815Z AUTO 09004KT 10SM BKN035 BKN055 OVC090 23/14 A3003 RMK AO2
                 T02250140 =
2014-10-01 13:55 METAR KSHD 011755Z AUTO 12003KT 10SM BKN033 BKN055 OVC095 22/14 A3003 RMK AO2
                 T02220140 10236 20152 =
2014-10-01 13:35 METAR KSHD 011735Z AUTO 00000KT 10SM BKN028 BKN055 OVC095 23/14 A3004 RMK AO2
                 T02290140 =
2014-10-01 13:15 METAR KSHD 011715Z AUTO 10003KT 10SM OVC028 23/14 A3005 RMK AO2 T02280142 =
2014-10-01 12:55 METAR KSHD 011655Z AUTO 00000KT 10SM BKN026 OVC060 22/14 A3005 RMK AO2 T02220141
                 =
2014-10-01 12:35 METAR KSHD 011635Z AUTO 07005KT 10SM OVC026 22/14 A3006 RMK AO2 T02210143 =
2014-10-01 12:15 METAR KSHD 011615Z AUTO 11004KT 10SM SCT020 BKN028 OVC070 21/14 A3006 RMK AO2
                 T02120144 =
2014-10-01 11:55 METAR KSHD 011555Z AUTO 13003KT 10SM SCT019 OVC028 21/15 A3007 RMK AO2 T02070146
                 =
2014-10-01 11:35 METAR KSHD 011535Z AUTO 00000KT 10SM SCT017 OVC028 20/15 A3007 RMK AO2 T02020146
                 =
2014-10-01 11:15 METAR KSHD 011515Z AUTO 00000KT 10SM BKN015 OVC026 20/15 A3007 RMK AO2 T01960147
                 =
2014-10-01 10:55 METAR KSHD 011455Z AUTO 00000KT 10SM SCT013 OVC026 19/15 A3007 RMK AO2 T01910147
                 =
2014-10-01 10:35 METAR KSHD 011435Z AUTO 00000KT 10SM SCT015 OVC026 19/15 A3007 RMK AO2 T01880146
                 =
2014-10-01 10:15 METAR KSHD 011415Z AUTO 00000KT 10SM SCT005 BKN015 OVC026 18/15 A3007 RMK AO2
                 T01780147 =
2014-10-01 09:55 METAR KSHD 011355Z AUTO 00000KT 7SM BKN005 BKN015 OVC026 17/15 A3006 RMK AO2
                 T01710146 =
2014-10-01 09:35 METAR KSHD 011335Z AUTO 00000KT 5SM BR OVC005 16/15 A3006 RMK AO2 T01630145 =
2014-10-01 09:15 METAR KSHD 011315Z AUTO 00000KT 4SM BR OVC005 16/15 A3006 RMK AO2 T01610145 =
2014-10-01 08:55 METAR KSHD 011255Z AUTO 00000KT 4SM BR OVC005 16/15 A3005 RMK AO2 T01600145 =
2014-10-01 08:35 METAR KSHD 011235Z AUTO 00000KT 4SM BR OVC005 16/14 A3005 RMK AO2 T01570141 =
2014-10-01 08:15 METAR KSHD 011215Z AUTO 00000KT 5SM BR BKN007 BKN025 16/14 A3004 RMK AO2
                 T01550140 =
2014-10-01 07:55 METAR KSHD 011155Z AUTO 00000KT 5SM BR SCT007 BKN025 15/14 A3003 RMK AO2
                 T01530138 10170 20141 =
2014-10-01 07:35 METAR KSHD 011135Z AUTO 00000KT 5SM BR SCT007 OVC025 15/14 A3003 RMK AO2
                 T01510137 =
2014-10-01 07:15 METAR KSHD 011115Z AUTO 00000KT 7SM OVC025 15/14 A3002 RMK AO2 T01500137 =
2014-10-01 06:55 METAR KSHD 011055Z AUTO 00000KT 5SM BR OVC025 15/13 A3001 RMK AO2 T01450132 =
2014-10-01 06:35 METAR KSHD 011035Z AUTO 00000KT 5SM BR OVC025 14/13 A3000 RMK AO2 T01430128 =
2014-10-01 06:15 METAR KSHD 011015Z AUTO 00000KT 7SM OVC023 15/13 A3000 RMK AO2 T01470134 =
2014-10-01 05:55 METAR KSHD 010955Z AUTO 00000KT 5SM BR BKN023 15/14 A3000 RMK AO2 T01520139 =
2014-10-01 05:35 METAR KSHD 010935Z AUTO 00000KT 7SM SCT025 15/14 A2999 RMK AO2 T01520137 =
2014-10-01 05:15 METAR KSHD 010915Z AUTO 05004KT 10SM BKN025 16/14 A2999 RMK AO2 T01560136 =
2014-10-01 04:55 METAR KSHD 010855Z AUTO 04003KT 10SM BKN022 OVC027 17/14 A2999 RMK AO2 T01660143
                 =
2014-10-01 04:35 METAR KSHD 010835Z AUTO 35003KT 10SM OVC022 17/15 A2999 RMK AO2 T01670145 =
2014-10-01 04:15 METAR KSHD 010815Z AUTO 00000KT 10SM OVC022 17/14 A2998 RMK AO2 T01670144 =
2014-10-01 03:55 METAR KSHD 010755Z AUTO 00000KT 10SM OVC022 17/14 A2998 RMK AO2 T01700143 =
2014-10-01 03:35 METAR KSHD 010735Z AUTO 00000KT 10SM OVC022 17/14 A2998 RMK AO2 T01680142 =
2014-10-01 03:15 METAR KSHD 010715Z AUTO 00000KT 10SM OVC022 17/14 A2998 RMK AO2 T01670141 =
2014-10-01 02:55 METAR KSHD 010655Z AUTO 00000KT 10SM OVC022 17/14 A2998 RMK AO2 T01660141 =
2014-10-01 02:35 METAR KSHD 010635Z AUTO 02004KT 10SM OVC022 17/14 A2999 RMK AO2 T01670141 =

Support USWX by starting your Amazon purchase here.